Data Viewer
| City | State | Eastern Time | Source | Temp | DewPt | RH | BP | 5 Min Precip | Wind Speed | Wind Dir | 5 Min Wind Max | 5 Min Wind Max Dir |
|---|---|---|---|---|---|---|---|---|---|---|---|---|
| Islip | NY | 2026-05-08 21:15 | ASOS | 54 | 45 | 71 | 29.91 | 7 | SSW | |||
| Islip | NY | 2026-05-09 02:45 | ASOS | 52 | 48 | 87 | 29.91 | 6 | NE | |||
| Islip | NY | 2026-05-09 03:30 | ASOS | 52 | 48 | 87 | 29.90 | 5 | ESE | |||
| Islip | NY | 2026-05-09 03:25 | ASOS | 52 | 48 | 87 | 29.90 | 5 | ESE | |||
| Islip | NY | 2026-05-09 03:20 | ASOS | 52 | 48 | 87 | 29.90 | 5 | E | |||
| Islip | NY | 2026-05-09 03:15 | ASOS | 52 | 48 | 87 | 29.90 | 5 | E | |||
| Islip | NY | 2026-05-09 03:10 | ASOS | 52 | 48 | 87 | 29.90 | 6 | ESE | |||
| Islip | NY | 2026-05-09 03:05 | ASOS | 52 | 48 | 87 | 29.90 | 5 | ESE | |||
| Islip | NY | 2026-05-09 03:00 | ASOS | 52 | 48 | 87 | 29.91 | 5 | E | |||
| Islip | NY | 2026-05-09 02:56 | ASOS | 51 | 48 | 89 | 29.91 | 5 | ESE | |||
| Islip | NY | 2026-05-09 02:55 | ASOS | 52 | 48 | 87 | 29.91 | 3 | ESE | |||
| Islip | NY | 2026-05-09 02:50 | ASOS | 52 | 48 | 87 | 29.91 | 5 | NE | |||
| Islip | NY | 2026-05-09 02:40 | ASOS | 52 | 48 | 87 | 29.92 | 0 | N | |||
| Islip | NY | 2026-05-09 03:40 | ASOS | 52 | 48 | 87 | 29.91 | 6 | SE | |||
| Islip | NY | 2026-05-09 02:35 | ASOS | 52 | 48 | 87 | 29.92 | 0 | N | |||
| Islip | NY | 2026-05-09 02:30 | ASOS | 52 | 48 | 87 | 29.92 | 0 | N | |||
| Islip | NY | 2026-05-09 02:25 | ASOS | 52 | 48 | 87 | 29.92 | 0 | N | |||
| Islip | NY | 2026-05-09 02:20 | ASOS | 52 | 48 | 87 | 29.92 | 3 | SE | |||
| Islip | NY | 2026-05-09 02:15 | ASOS | 52 | 46 | 82 | 29.92 | 5 | SSE | |||
| Islip | NY | 2026-05-09 02:10 | ASOS | 52 | 46 | 82 | 29.93 | 6 | S | |||
| Islip | NY | 2026-05-09 02:05 | ASOS | 52 | 46 | 82 | 29.92 | 5 | S | |||
| Islip | NY | 2026-05-09 02:00 | ASOS | 52 | 46 | 82 | 29.92 | 3 | SSE | |||
| Islip | NY | 2026-05-09 01:56 | ASOS | 52 | 47 | 83 | 29.93 | 3 | S | |||
| Islip | NY | 2026-05-09 01:55 | ASOS | 52 | 46 | 82 | 29.93 | 3 | S | |||
| Islip | NY | 2026-05-09 03:35 | ASOS | 52 | 48 | 87 | 29.90 | 6 | ESE | |||
| Islip | NY | 2026-05-09 03:45 | ASOS | 52 | 48 | 87 | 29.91 | 3 | ESE | |||
| Islip | NY | 2026-05-09 01:45 | ASOS | 52 | 46 | 82 | 29.92 | 0 | N | |||
| Islip | NY | 2026-05-09 04:56 | ASOS | 52 | 49 | 89 | 29.90 | 5 | ESE | |||
| Islip | NY | 2026-05-09 10:56 | ASOS | 58 | 50 | 75 | 29.91 | 10 | S | |||
| Islip | NY | 2026-05-09 09:56 | ASOS | 58 | 50 | 75 | 29.91 | 9 | S | |||
| Islip | NY | 2026-05-09 08:56 | ASOS | 56 | 48 | 75 | 29.92 | 9 | SW | |||
| Islip | NY | 2026-05-09 07:56 | ASOS | 57 | 47 | 69 | 29.92 | 12 | SSW | |||
| Islip | NY | 2026-05-09 05:25 | ASOS | 54 | 48 | 82 | 29.90 | 6 | SSE | |||
| Islip | NY | 2026-05-09 05:20 | ASOS | 54 | 48 | 82 | 29.91 | 6 | S | |||
| Islip | NY | 2026-05-09 05:15 | ASOS | 54 | 48 | 82 | 29.91 | 7 | S | |||
| Islip | NY | 2026-05-09 05:10 | ASOS | 54 | 48 | 82 | 29.90 | 6 | SSE | |||
| Islip | NY | 2026-05-09 05:05 | ASOS | 52 | 48 | 87 | 29.90 | 3 | SSE | |||
| Islip | NY | 2026-05-09 05:00 | ASOS | 52 | 48 | 87 | 29.90 | 3 | ESE | |||
| Islip | NY | 2026-05-09 04:55 | ASOS | 52 | 48 | 87 | 29.90 | 5 | ESE | |||
| Islip | NY | 2026-05-09 03:50 | ASOS | 52 | 48 | 87 | 29.91 | 7 | SSE | |||
| Islip | NY | 2026-05-09 04:50 | ASOS | 52 | 48 | 87 | 29.90 | 0 | N | |||
| Islip | NY | 2026-05-09 04:45 | ASOS | 54 | 48 | 82 | 29.90 | 0 | N | |||
| Islip | NY | 2026-05-09 04:40 | ASOS | 54 | 48 | 82 | 29.90 | 0 | N | |||
| Islip | NY | 2026-05-09 04:35 | ASOS | 54 | 48 | 82 | 29.91 | 3 | SSE | |||
| Islip | NY | 2026-05-09 04:30 | ASOS | 54 | 48 | 82 | 29.91 | 3 | SSE | |||
| Islip | NY | 2026-05-09 04:25 | ASOS | 54 | 48 | 82 | 29.91 | 3 | S | |||
| Islip | NY | 2026-05-09 04:20 | ASOS | 54 | 48 | 82 | 29.91 | 5 | S | |||
| Islip | NY | 2026-05-09 04:15 | ASOS | 54 | 48 | 82 | 29.91 | 5 | S | |||
| Islip | NY | 2026-05-09 04:05 | ASOS | 54 | 48 | 82 | 29.91 | 8 | S | |||
| Islip | NY | 2026-05-09 04:00 | ASOS | 54 | 48 | 82 | 29.91 | 7 | S | |||
| Islip | NY | 2026-05-09 03:56 | ASOS | 53 | 49 | 86 | 29.91 | 7 | S | |||
| Islip | NY | 2026-05-09 01:50 | ASOS | 52 | 46 | 82 | 29.93 | 5 | S | |||
| Islip | NY | 2026-05-09 01:40 | ASOS | 52 | 46 | 82 | 29.92 | 0 | N | |||
| Islip | NY | 2026-05-08 21:20 | ASOS | 54 | 45 | 71 | 29.92 | 7 | S | |||
| Islip | NY | 2026-05-08 22:25 | ASOS | 54 | 45 | 71 | 29.93 | 6 | SSW | |||
| Islip | NY | 2026-05-08 23:10 | ASOS | 54 | 45 | 71 | 29.93 | 5 | S | |||
| Islip | NY | 2026-05-08 23:05 | ASOS | 54 | 45 | 71 | 29.93 | 5 | S | |||
| Islip | NY | 2026-05-08 23:00 | ASOS | 54 | 45 | 71 | 29.93 | 7 | SSW | |||
| Islip | NY | 2026-05-08 22:56 | ASOS | 54 | 44 | 69 | 29.93 | 6 | SSW | |||
| Islip | NY | 2026-05-08 22:55 | ASOS | 54 | 45 | 71 | 29.93 | 6 | SSW | |||
| Islip | NY | 2026-05-08 22:50 | ASOS | 54 | 45 | 71 | 29.93 | 7 | SSW | |||
| Islip | NY | 2026-05-08 22:45 | ASOS | 54 | 45 | 71 | 29.93 | 7 | SSW | |||
| Islip | NY | 2026-05-08 22:40 | ASOS | 54 | 45 | 71 | 29.93 | 7 | SSW | |||
| Islip | NY | 2026-05-08 22:35 | ASOS | 54 | 45 | 71 | 29.93 | 7 | SSW | |||
| Islip | NY | 2026-05-08 22:30 | ASOS | 54 | 45 | 71 | 29.93 | 8 | S | |||
| Islip | NY | 2026-05-08 22:20 | ASOS | 54 | 46 | 77 | 29.93 | 7 | SSW | |||
| Islip | NY | 2026-05-08 23:20 | ASOS | 54 | 45 | 71 | 29.93 | 3 | S | |||
| Islip | NY | 2026-05-08 22:15 | ASOS | 54 | 46 | 77 | 29.93 | 8 | SSW | |||
| Islip | NY | 2026-05-08 22:10 | ASOS | 54 | 46 | 77 | 29.93 | 8 | SSW | |||
| Islip | NY | 2026-05-08 22:05 | ASOS | 54 | 46 | 77 | 29.93 | 7 | S | |||
| Islip | NY | 2026-05-08 22:00 | ASOS | 54 | 46 | 77 | 29.93 | 9 | S | |||
| Islip | NY | 2026-05-08 21:56 | ASOS | 53 | 46 | 77 | 29.92 | 8 | S | |||
| Islip | NY | 2026-05-08 21:50 | ASOS | 54 | 46 | 77 | 29.93 | 8 | S | |||
| Islip | NY | 2026-05-08 21:45 | ASOS | 54 | 46 | 77 | 29.92 | 8 | S | |||
| Islip | NY | 2026-05-08 21:40 | ASOS | 54 | 46 | 77 | 29.92 | 7 | S | |||
| Islip | NY | 2026-05-08 21:35 | ASOS | 54 | 46 | 77 | 29.92 | 6 | S | |||
| Islip | NY | 2026-05-08 21:25 | ASOS | 54 | 45 | 71 | 29.92 | 6 | S | |||
| Islip | NY | 2026-05-08 23:15 | ASOS | 54 | 45 | 71 | 29.93 | 5 | S | |||
| Islip | NY | 2026-05-08 23:25 | ASOS | 54 | 45 | 71 | 29.93 | 0 | N | |||
| Islip | NY | 2026-05-09 01:35 | ASOS | 50 | 46 | 87 | 29.93 | 3 | SE | |||
| Islip | NY | 2026-05-09 00:40 | ASOS | 50 | 45 | 82 | 29.93 | 3 | ESE | |||
| Islip | NY | 2026-05-09 01:30 | ASOS | 48 | 46 | 93 | 29.93 | 3 | SE | |||
| Islip | NY | 2026-05-09 01:25 | ASOS | 48 | 46 | 93 | 29.93 | 3 | SE | |||
| Islip | NY | 2026-05-09 01:20 | ASOS | 48 | 45 | 87 | 29.93 | 3 | ESE | |||
| Islip | NY | 2026-05-09 01:15 | ASOS | 48 | 45 | 87 | 29.93 | 5 | ESE | |||
| Islip | NY | 2026-05-09 01:10 | ASOS | 48 | 45 | 87 | 29.93 | 3 | ESE | |||
| Islip | NY | 2026-05-09 01:05 | ASOS | 48 | 45 | 87 | 29.93 | 0 | N | |||
| Islip | NY | 2026-05-09 00:56 | ASOS | 49 | 45 | 86 | 29.93 | 3 | ENE | |||
| Islip | NY | 2026-05-09 00:55 | ASOS | 48 | 45 | 87 | 29.93 | 0 | N | |||
| Islip | NY | 2026-05-09 00:50 | ASOS | 48 | 45 | 87 | 29.93 | 0 | N | |||
| Islip | NY | 2026-05-09 00:45 | ASOS | 50 | 45 | 82 | 29.93 | 3 | E | |||
| Islip | NY | 2026-05-09 00:35 | ASOS | 50 | 45 | 82 | 29.93 | 3 | ESE | |||
| Islip | NY | 2026-05-08 23:30 | ASOS | 54 | 45 | 71 | 29.93 | 3 | SSW | |||
| Islip | NY | 2026-05-09 00:30 | ASOS | 52 | 45 | 76 | 29.92 | 3 | ESE | |||
| Islip | NY | 2026-05-09 00:25 | ASOS | 52 | 45 | 76 | 29.92 | 3 | ESE | |||
| Islip | NY | 2026-05-09 00:20 | ASOS | 52 | 45 | 76 | 29.92 | 0 | N | |||
| Islip | NY | 2026-05-09 00:15 | ASOS | 54 | 45 | 71 | 29.92 | 0 | N | |||
| Islip | NY | 2026-05-09 00:10 | ASOS | 54 | 45 | 71 | 29.92 | 0 | N | |||
| Islip | NY | 2026-05-09 00:05 | ASOS | 54 | 45 | 71 | 29.92 | 0 | N | |||
| Islip | NY | 2026-05-09 00:00 | ASOS | 54 | 45 | 71 | 29.93 | 0 | N | |||
| Islip | NY | 2026-05-08 23:56 | ASOS | 53 | 45 | 74 | 29.93 | 0 | N | |||
| Islip | NY | 2026-05-08 23:45 | ASOS | 54 | 45 | 71 | 29.93 | 0 | N | |||
| Islip | NY | 2026-05-08 23:40 | ASOS | 54 | 45 | 71 | 29.93 | 3 | SW | |||
| Islip | NY | 2026-05-08 23:35 | ASOS | 54 | 45 | 71 | 29.93 | 3 | SW | |||
| Islip | NY | 2026-05-09 16:48 | ASOS | 56 | 50 | 80 | 29.86 | 8 | S |
data collection created in 0.016314029693604 (queried in 0.003568) rendered in: 0.00015091896057129

